WXM80 ListenWXM80 Stop

You find our weather info also at:

UK Metoffice

WeatherCloud

Weather Underground

Northeastern Weather Network

AWEKAS

Citizen Weather Observer Program (CWOP)

HAMweather, WeatherForYou, PWS Weather


Weather Underground History page Text

Daily Summary for December 19, 2017 Units:  English    Metric   Both
« Previous Day
Next Day »
Daily Weekly Monthly Yearly Custom
  High: Low: Average:
Temperature: TemperatureF °F 44.3 °F 49.1 °F
Dew Point: DewpointF °F 38.4 °F 40 °F
Humidity: Humidity % 60 % 71 %
Wind Speed: WindSpeedMPH mph 0.0 mph 4.5 mph
Wind Gust: WindSpeedGustMPH mph - -
Wind:- - SW
Pressure: PressureIn in 29.68 in -
Precipitation: 0.00 in    
Historical Graphs
 
 
Tabular Data for December 19, 2017
Time Temperature Dew Point Pressure Wind Wind Speed Wind Gust Humidity Rainfall Rate (Hourly)
TemperatureF °F DewpointF °F PressureIn in Calm     Humidity % HourlyPrecipIn in
00:03 44.8 °F 38.7 °F 29.90 in SW 4.7 mph 8.0 mph 79 % 0.00 in
00:04 44.8 °F 38.4 °F 29.90 in WSW 3.6 mph 9.2 mph 78 % 0.00 in
00:08 44.8 °F 38.7 °F 29.90 in WSW 3.7 mph 5.8 mph 79 % 0.00 in
00:11 44.8 °F 38.7 °F 29.90 in SW 4.6 mph 9.2 mph 79 % 0.00 in
00:16 44.8 °F 38.7 °F 29.90 in SSW 3.9 mph 7.0 mph 79 % 0.00 in
00:17 44.8 °F 38.7 °F 29.90 in WSW 3.7 mph 6.9 mph 79 % 0.00 in
00:22 44.9 °F 38.8 °F 29.90 in SSW 5.0 mph 8.1 mph 79 % 0.00 in
00:23 44.9 °F 38.8 °F 29.90 in SW 4.8 mph 9.2 mph 79 % 0.00 in
00:24 44.9 °F 39.1 °F 29.90 in SW 3.9 mph 9.2 mph 80 % 0.00 in
00:29 44.9 °F 39.1 °F 29.90 in SW 2.6 mph 8.1 mph 80 % 0.00 in
00:30 44.9 °F 39.1 °F 29.90 in SSW 4.6 mph 7.0 mph 80 % 0.00 in
00:35 45.0 °F 39.2 °F 29.91 in WSW 4.5 mph 8.1 mph 80 % 0.00 in
00:40 45.0 °F 39.2 °F 29.91 in WSW 4.5 mph 8.0 mph 80 % 0.00 in
00:44 45.1 °F 39.3 °F 29.91 in WSW 2.3 mph 8.1 mph 80 % 0.00 in
00:48 45.1 °F 39.3 °F 29.91 in WSW 4.6 mph 8.1 mph 80 % 0.00 in
00:53 45.2 °F 39.4 °F 29.91 in West 3.5 mph 6.0 mph 80 % 0.00 in
00:54 45.2 °F 39.4 °F 29.91 in WSW 1.2 mph 5.8 mph 80 % 0.00 in
00:57 45.2 °F 39.4 °F 29.91 in WSW 2.1 mph 9.2 mph 80 % 0.00 in
00:59 45.2 °F 39.4 °F 29.91 in West 4.0 mph 6.0 mph 80 % 0.00 in
01:04 45.3 °F 39.5 °F 29.91 in WSW 3.9 mph 7.0 mph 80 % 0.00 in
01:05 45.3 °F 39.5 °F 29.91 in WSW 3.9 mph 8.1 mph 80 % 0.00 in
01:06 45.3 °F 39.5 °F 29.91 in WSW 0.4 mph 5.8 mph 80 % 0.00 in
01:10 45.4 °F 39.6 °F 29.91 in WSW 4.2 mph 11.0 mph 80 % 0.00 in
01:12 45.4 °F 39.6 °F 29.91 in SW 5.4 mph 11.5 mph 80 % 0.00 in
01:16 45.4 °F 39.6 °F 29.91 in SW 4.4 mph 9.0 mph 80 % 0.00 in
01:21 45.4 °F 39.6 °F 29.91 in WSW 5.8 mph 8.1 mph 80 % 0.00 in
01:26 45.4 °F 39.6 °F 29.91 in WSW 5.6 mph 8.1 mph 80 % 0.00 in
01:31 45.4 °F 39.6 °F 29.91 in SW 5.7 mph 8.1 mph 80 % 0.00 in
01:36 45.3 °F 39.5 °F 29.91 in West 4.1 mph 8.1 mph 80 % 0.00 in
01:41 45.3 °F 39.5 °F 29.91 in WSW 4.4 mph 5.8 mph 80 % 0.00 in
01:42 45.3 °F 39.5 °F 29.91 in SW 2.7 mph 6.9 mph 80 % 0.00 in
01:47 45.3 °F 39.5 °F 29.91 in WSW 2.7 mph 4.6 mph 80 % 0.00 in
01:48 45.2 °F 39.4 °F 29.91 in WSW 2.8 mph 4.6 mph 80 % 0.00 in
01:53 45.2 °F 39.4 °F 29.91 in WSW 2.1 mph 3.5 mph 80 % 0.00 in
01:54 45.2 °F 39.4 °F 29.91 in WSW 2.6 mph 5.0 mph 80 % 0.00 in
01:59 45.2 °F 39.4 °F 29.91 in WSW 1.6 mph 4.6 mph 80 % 0.00 in
02:00 45.2 °F 39.4 °F 29.91 in South 2.4 mph 3.5 mph 80 % 0.00 in
02:01 45.2 °F 39.4 °F 29.91 in SW 1.8 mph 4.0 mph 80 % 0.00 in
02:06 45.1 °F 39.6 °F 29.91 in WSW 0.6 mph 3.5 mph 81 % 0.00 in
02:11 45.1 °F 39.6 °F 29.90 in SW 1.0 mph 3.5 mph 81 % 0.00 in
02:12 45.1 °F 39.6 °F 29.91 in SW 1.3 mph 3.5 mph 81 % 0.00 in
02:17 45.1 °F 39.6 °F 29.91 in West 1.3 mph 3.5 mph 81 % 0.00 in
02:21 45.0 °F 39.5 °F 29.91 in WSW 2.0 mph 5.0 mph 81 % 0.00 in
02:25 45.0 °F 39.5 °F 29.91 in SW 0.3 mph 1.2 mph 81 % 0.00 in
02:27 45.0 °F 39.5 °F 29.91 in Calm   1.2 mph 81 % 0.00 in
02:31 44.9 °F 39.4 °F 29.91 in SW 0.2 mph 1.2 mph 81 % 0.00 in
02:34 44.9 °F 39.4 °F 29.91 in WSW 2.3 mph 3.5 mph 81 % 0.00 in
02:39 44.9 °F 39.4 °F 29.92 in WNW 1.6 mph 3.0 mph 81 % 0.00 in
02:42 44.9 °F 39.4 °F 29.92 in WSW 4.0 mph 6.0 mph 81 % 0.00 in
02:45 44.8 °F 39.6 °F 29.92 in WSW 1.8 mph 3.5 mph 82 % 0.00 in
02:50 44.8 °F 39.6 °F 29.91 in SW 2.9 mph 5.8 mph 82 % 0.00 in
02:52 44.8 °F 39.6 °F 29.92 in WSW 1.7 mph 3.5 mph 82 % 0.00 in
02:53 44.8 °F 39.6 °F 29.91 in WSW 1.9 mph 4.0 mph 82 % 0.00 in
02:58 44.8 °F 39.6 °F 29.91 in WSW 2.6 mph 3.5 mph 82 % 0.00 in
02:59 44.8 °F 39.6 °F 29.91 in WSW 1.5 mph 3.5 mph 82 % 0.00 in
03:04 44.8 °F 39.6 °F 29.91 in WSW 0.6 mph 2.3 mph 82 % 0.00 in
03:06 44.8 °F 39.6 °F 29.91 in WSW 1.0 mph 6.0 mph 82 % 0.00 in
03:11 44.7 °F 39.5 °F 29.91 in Calm   2.0 mph 82 % 0.00 in
03:14 44.7 °F 39.5 °F 29.91 in SW 0.6 mph 5.8 mph 82 % 0.00 in
03:19 44.7 °F 39.5 °F 29.91 in WSW 0.2 mph 2.3 mph 82 % 0.00 in
03:24 44.7 °F 39.5 °F 29.90 in WSW 1.7 mph 4.6 mph 82 % 0.00 in
03:29 44.7 °F 39.9 °F 29.90 in SW 0.6 mph 3.5 mph 83 % 0.00 in
03:34 44.7 °F 39.9 °F 29.90 in WSW 0.9 mph 3.5 mph 83 % 0.00 in
03:37 44.7 °F 39.9 °F 29.90 in SW 2.6 mph 5.8 mph 83 % 0.00 in
03:41 44.7 °F 39.9 °F 29.90 in WSW 3.5 mph 5.8 mph 83 % 0.00 in
03:46 44.6 °F 39.8 °F 29.90 in WSW 1.9 mph 4.6 mph 83 % 0.00 in
03:48 44.7 °F 39.9 °F 29.89 in SSW 3.0 mph 5.8 mph 83 % 0.00 in
03:53 44.7 °F 39.9 °F 29.89 in SW 1.7 mph 3.5 mph 83 % 0.00 in
03:54 44.7 °F 39.9 °F 29.90 in WSW 3.2 mph 5.8 mph 83 % 0.00 in
03:55 44.7 °F 39.9 °F 29.89 in WSW 2.8 mph 5.8 mph 83 % 0.00 in
04:00 44.7 °F 39.9 °F 29.89 in SW 1.8 mph 3.5 mph 83 % 0.00 in
04:01 44.7 °F 39.9 °F 29.90 in SSW 2.6 mph 5.0 mph 83 % 0.00 in
04:04 44.7 °F 39.9 °F 29.89 in SW 0.3 mph 5.8 mph 83 % 0.00 in
04:09 44.8 °F 40.0 °F 29.90 in WSW 2.0 mph 6.9 mph 83 % 0.00 in
04:14 44.8 °F 40.0 °F 29.90 in SW 1.8 mph 3.5 mph 83 % 0.00 in
04:15 44.8 °F 40.0 °F 29.90 in WSW 2.3 mph 4.6 mph 83 % 0.00 in
04:20 44.8 °F 40.0 °F 29.90 in WSW 0.7 mph 2.3 mph 83 % 0.00 in
04:24 44.9 °F 40.0 °F 29.90 in WSW 1.2 mph 2.3 mph 83 % 0.00 in
04:29 44.9 °F 40.0 °F 29.89 in SW 1.0 mph 3.5 mph 83 % 0.00 in
04:30 44.9 °F 40.0 °F 29.89 in SW 1.1 mph 3.5 mph 83 % 0.00 in
04:35 44.9 °F 40.0 °F 29.89 in WSW 2.1 mph 3.5 mph 83 % 0.00 in
04:40 44.9 °F 40.0 °F 29.89 in WSW 2.0 mph 3.5 mph 83 % 0.00 in
04:45 44.9 °F 40.0 °F 29.90 in WSW 4.2 mph 8.1 mph 83 % 0.00 in
04:50 45.0 °F 40.1 °F 29.90 in WSW 2.2 mph 3.5 mph 83 % 0.00 in
04:52 45.0 °F 40.1 °F 29.90 in WSW 1.5 mph 4.0 mph 83 % 0.00 in
04:54 45.0 °F 40.1 °F 29.89 in WSW 2.2 mph 8.0 mph 83 % 0.00 in
04:59 45.1 °F 40.2 °F 29.90 in SSW 1.9 mph 5.0 mph 83 % 0.00 in
05:00 45.1 °F 40.2 °F 29.90 in SW 3.0 mph 4.6 mph 83 % 0.00 in
05:05 45.1 °F 40.2 °F 29.90 in WSW 2.3 mph 3.5 mph 83 % 0.00 in
05:07 45.1 °F 40.2 °F 29.90 in WSW 2.5 mph 4.6 mph 83 % 0.00 in
05:12 45.2 °F 40.3 °F 29.89 in WSW 0.8 mph 2.3 mph 83 % 0.00 in
05:14 45.2 °F 40.3 °F 29.90 in SW 3.5 mph 4.6 mph 83 % 0.00 in
05:15 45.2 °F 40.3 °F 29.90 in SW 1.4 mph 5.8 mph 83 % 0.00 in
05:19 45.2 °F 40.0 °F 29.90 in SW 3.4 mph 6.9 mph 82 % 0.00 in
05:22 45.2 °F 40.0 °F 29.90 in SW 3.1 mph 6.0 mph 82 % 0.00 in
05:27 45.2 °F 40.0 °F 29.90 in WSW 5.0 mph 8.1 mph 82 % 0.00 in
05:32 45.3 °F 40.1 °F 29.90 in SSW 4.1 mph 5.0 mph 82 % 0.00 in
05:37 45.4 °F 40.2 °F 29.90 in West 2.1 mph 4.0 mph 82 % 0.00 in
05:38 45.4 °F 40.2 °F 29.90 in WSW 3.2 mph 4.6 mph 82 % 0.00 in
05:43 45.4 °F 40.2 °F 29.90 in SSW 3.0 mph 4.6 mph 82 % 0.00 in
05:44 45.4 °F 40.2 °F 29.90 in SSW 2.5 mph 4.6 mph 82 % 0.00 in
05:49 45.5 °F 40.3 °F 29.90 in West 4.8 mph 6.9 mph 82 % 0.00 in
05:53 45.6 °F 40.1 °F 29.90 in SW 2.4 mph 4.0 mph 81 % 0.00 in
05:57 45.6 °F 40.1 °F 29.90 in WSW 3.9 mph 4.6 mph 81 % 0.00 in
05:59 45.7 °F 40.2 °F 29.90 in WSW 1.7 mph 6.9 mph 81 % 0.00 in
06:04 45.7 °F 40.2 °F 29.90 in WSW 0.2 mph 3.5 mph 81 % 0.00 in
06:07 45.8 °F 40.3 °F 29.90 in WSW 0.6 mph 1.0 mph 81 % 0.00 in
06:10 45.8 °F 40.3 °F 29.90 in WSW 0.6 mph 3.0 mph 81 % 0.00 in
06:15 45.8 °F 40.3 °F 29.90 in SW 1.9 mph 3.5 mph 81 % 0.00 in
06:20 45.8 °F 40.3 °F 29.90 in SW 1.6 mph 4.6 mph 81 % 0.00 in
06:21 45.8 °F 40.3 °F 29.90 in SW 0.2 mph 1.2 mph 81 % 0.00 in
06:26 45.8 °F 40.0 °F 29.90 in SW 2.8 mph 3.5 mph 80 % 0.00 in
06:29 45.8 °F 40.0 °F 29.89 in SW 1.6 mph 5.8 mph 80 % 0.00 in
06:34 45.7 °F 39.9 °F 29.90 in West 2.7 mph 4.6 mph 80 % 0.00 in
06:38 45.7 °F 39.9 °F 29.90 in SW 0.1 mph 4.6 mph 80 % 0.00 in
06:44 45.6 °F 39.8 °F 29.90 in SW 2.7 mph 5.8 mph 80 % 0.00 in
06:48 45.6 °F 39.8 °F 29.90 in SW 1.9 mph 5.0 mph 80 % 0.00 in
06:51 45.5 °F 39.7 °F 29.90 in SW 3.0 mph 3.5 mph 80 % 0.00 in
06:56 45.4 °F 39.6 °F 29.89 in WSW 1.2 mph 3.5 mph 80 % 0.00 in
06:57 45.4 °F 39.6 °F 29.89 in WSW 0.8 mph 3.5 mph 80 % 0.00 in
07:02 45.4 °F 39.9 °F 29.89 in SSW 2.5 mph 4.6 mph 81 % 0.00 in
07:07 45.3 °F 39.8 °F 29.89 in SW 1.6 mph 3.5 mph 81 % 0.00 in
07:08 45.3 °F 39.8 °F 29.89 in SW 1.1 mph 3.5 mph 81 % 0.00 in
07:13 45.2 °F 39.7 °F 29.89 in SW 1.9 mph 3.5 mph 81 % 0.00 in
07:18 45.2 °F 39.7 °F 29.89 in SSW 2.5 mph 3.5 mph 81 % 0.00 in
07:20 45.1 °F 39.6 °F 29.88 in SSW 1.3 mph 3.5 mph 81 % 0.00 in
07:25 45.0 °F 39.5 °F 29.88 in SW 1.8 mph 3.5 mph 81 % 0.00 in
07:26 45.1 °F 39.6 °F 29.88 in SSW 2.0 mph 5.0 mph 81 % 0.00 in
07:31 44.9 °F 39.5 °F 29.89 in Calm   3.0 mph 81 % 0.00 in
07:36 44.8 °F 39.3 °F 29.88 in SSW 0.5 mph 3.5 mph 81 % 0.00 in
07:41 44.7 °F 39.2 °F 29.89 in SW 2.8 mph 3.5 mph 81 % 0.00 in
07:43 44.7 °F 39.2 °F 29.89 in South 0.6 mph 3.5 mph 81 % 0.00 in
07:49 44.5 °F 39.0 °F 29.89 in SW 1.5 mph 3.5 mph 81 % 0.00 in
07:54 44.4 °F 39.2 °F 29.88 in SSW 2.2 mph 4.6 mph 82 % 0.00 in
07:55 44.3 °F 39.2 °F 29.89 in SSW 1.4 mph 3.5 mph 82 % 0.00 in
08:00 44.3 °F 39.2 °F 29.88 in SW 0.6 mph 2.3 mph 82 % 0.00 in
08:01 44.3 °F 39.2 °F 29.88 in SSW 1.7 mph 3.0 mph 82 % 0.00 in
08:06 44.3 °F 39.5 °F 29.89 in SSW 2.4 mph 5.8 mph 83 % 0.00 in
08:11 44.3 °F 39.5 °F 29.89 in WSW 1.2 mph 4.6 mph 83 % 0.00 in
08:15 44.3 °F 39.5 °F 29.89 in WSW 2.5 mph 5.8 mph 83 % 0.00 in
08:20 44.5 °F 39.7 °F 29.88 in WSW 1.2 mph 2.3 mph 83 % 0.00 in
08:21 44.5 °F 39.7 °F 29.88 in SW 3.4 mph 5.8 mph 83 % 0.00 in
08:26 44.7 °F 39.9 °F 29.88 in SW 2.5 mph 3.5 mph 83 % 0.00 in
08:31 44.9 °F 40.0 °F 29.89 in SSW 2.5 mph 6.9 mph 83 % 0.00 in
08:34 45.0 °F 40.1 °F 29.89 in WSW 1.3 mph 4.6 mph 83 % 0.00 in
08:39 45.3 °F 40.4 °F 29.89 in SW 2.2 mph 5.8 mph 83 % 0.00 in
08:44 45.6 °F 40.4 °F 29.89 in SW 2.9 mph 4.6 mph 82 % 0.00 in
08:46 45.6 °F 40.4 °F 29.89 in WSW 4.9 mph 6.9 mph 82 % 0.00 in
08:48 45.8 °F 40.6 °F 29.89 in SW 3.5 mph 6.9 mph 82 % 0.00 in
08:53 46.0 °F 40.5 °F 29.89 in SW 5.4 mph 10.4 mph 81 % 0.00 in
08:54 46.1 °F 40.6 °F 29.89 in SW 5.4 mph 10.4 mph 81 % 0.00 in
08:59 46.5 °F 41.0 °F 29.89 in SW 3.9 mph 6.0 mph 81 % 0.00 in
09:00 46.5 °F 41.0 °F 29.89 in SW 5.8 mph 12.0 mph 81 % 0.00 in
09:05 46.8 °F 41.0 °F 29.89 in WSW 2.7 mph 4.6 mph 80 % 0.00 in
09:06 46.9 °F 41.1 °F 29.89 in SW 3.4 mph 9.0 mph 80 % 0.00 in
09:11 47.2 °F 41.0 °F 29.89 in SW 6.3 mph 9.2 mph 79 % 0.00 in
09:15 47.4 °F 41.2 °F 29.89 in SSW 3.6 mph 9.2 mph 79 % 0.00 in
09:16 47.5 °F 41.3 °F 29.89 in SW 4.6 mph 12.0 mph 79 % 0.00 in
09:21 47.7 °F 41.5 °F 29.89 in South 1.9 mph 3.5 mph 79 % 0.00 in
09:26 47.9 °F 41.7 °F 29.89 in WSW 3.1 mph 5.8 mph 79 % 0.00 in
09:27 47.9 °F 41.7 °F 29.88 in SSW 3.5 mph 5.0 mph 79 % 0.00 in
09:32 48.1 °F 41.6 °F 29.89 in South 4.7 mph 10.4 mph 78 % 0.00 in
09:33 48.2 °F 41.7 °F 29.89 in SSW 5.6 mph 8.1 mph 78 % 0.00 in
09:38 48.5 °F 41.6 °F 29.89 in WSW 5.3 mph 10.0 mph 77 % 0.00 in
09:43 48.9 °F 42.0 °F 29.89 in West 7.3 mph 11.5 mph 77 % 0.00 in
09:44 48.9 °F 41.7 °F 29.89 in WSW 4.8 mph 11.5 mph 76 % 0.00 in
09:49 49.3 °F 42.1 °F 29.89 in SW 5.1 mph 5.8 mph 76 % 0.00 in
09:50 49.4 °F 42.1 °F 29.89 in WSW 3.3 mph 6.0 mph 76 % 0.00 in
09:56 49.7 °F 42.1 °F 29.89 in WSW 5.8 mph 8.1 mph 75 % 0.00 in
09:57 49.8 °F 41.8 °F 29.89 in WSW 4.0 mph 11.5 mph 74 % 0.00 in
10:02 50.2 °F 41.9 °F 29.89 in SSW 5.7 mph 11.5 mph 73 % 0.00 in
10:03 50.3 °F 42.0 °F 29.89 in West 6.0 mph 10.0 mph 73 % 0.00 in
10:05 50.4 °F 41.7 °F 29.89 in WSW 8.3 mph 10.4 mph 72 % 0.00 in
10:10 50.6 °F 41.9 °F 29.89 in SW 6.4 mph 11.0 mph 72 % 0.00 in
10:15 50.7 °F 41.6 °F 29.88 in SW 6.1 mph 11.5 mph 71 % 0.00 in
10:21 50.9 °F 41.8 °F 29.88 in WSW 5.0 mph 15.0 mph 71 % 0.00 in
10:26 51.1 °F 41.7 °F 29.88 in West 6.8 mph 10.4 mph 70 % 0.00 in
10:31 51.2 °F 41.4 °F 29.87 in SW 8.8 mph 15.0 mph 69 % 0.00 in
10:36 51.3 °F 41.5 °F 29.87 in WSW 5.9 mph 11.0 mph 69 % 0.00 in
10:38 51.4 °F 41.2 °F 29.87 in WSW 5.2 mph 10.4 mph 68 % 0.00 in
10:43 51.5 °F 41.3 °F 29.87 in West 4.6 mph 11.0 mph 68 % 0.00 in
10:44 51.5 °F 40.9 °F 29.87 in WSW 6.5 mph 11.5 mph 67 % 0.00 in
10:50 51.7 °F 41.1 °F 29.87 in SW 3.5 mph 14.0 mph 67 % 0.00 in
10:51 51.8 °F 41.2 °F 29.87 in WSW 9.8 mph 14.0 mph 67 % 0.00 in
10:55 52.0 °F 41.0 °F 29.87 in SW 7.8 mph 15.0 mph 66 % 0.00 in
11:00 52.3 °F 41.3 °F 29.86 in WSW 4.0 mph 12.7 mph 66 % 0.00 in
11:06 52.4 °F 41.0 °F 29.86 in WSW 8.0 mph 17.0 mph 65 % 0.00 in
11:08 52.6 °F 41.6 °F 29.85 in SW 8.2 mph 16.1 mph 66 % 0.00 in
11:13 52.8 °F 41.7 °F 29.85 in SW 6.2 mph 15.0 mph 66 % 0.00 in
11:14 52.8 °F 41.4 °F 29.85 in SW 8.0 mph 15.0 mph 65 % 0.00 in
11:19 52.8 °F 41.4 °F 29.84 in WSW 6.2 mph 19.6 mph 65 % 0.00 in
11:22 52.9 °F 41.0 °F 29.84 in SW 13.7 mph 19.0 mph 64 % 0.00 in
11:27 52.9 °F 41.4 °F 29.84 in SW 5.8 mph 6.9 mph 65 % 0.00 in
11:29 52.9 °F 41.4 °F 29.84 in SW 4.1 mph 9.2 mph 65 % 0.00 in
11:34 52.8 °F 41.4 °F 29.84 in WSW 7.8 mph 13.8 mph 65 % 0.00 in
11:39 52.8 °F 41.4 °F 29.84 in SSW 8.5 mph 13.8 mph 65 % 0.00 in
11:41 52.9 °F 41.4 °F 29.84 in SSW 6.9 mph 11.5 mph 65 % 0.00 in
11:46 53.0 °F 41.1 °F 29.83 in West 8.1 mph 14.0 mph 64 % 0.00 in
11:48 53.0 °F 41.1 °F 29.83 in SW 9.5 mph 13.8 mph 64 % 0.00 in
11:53 53.0 °F 41.5 °F 29.83 in WSW 9.7 mph 16.1 mph 65 % 0.00 in
11:57 53.1 °F 41.6 °F 29.82 in SSW 8.2 mph 16.1 mph 65 % 0.00 in
12:02 53.3 °F 41.4 °F 29.81 in West 6.9 mph 13.8 mph 64 % 0.00 in
12:03 53.3 °F 41.4 °F 29.81 in SW 5.0 mph 8.1 mph 64 % 0.00 in
12:08 53.5 °F 41.6 °F 29.81 in SSW 4.4 mph 9.0 mph 64 % 0.00 in
12:13 53.8 °F 41.9 °F 29.80 in WSW 8.8 mph 16.1 mph 64 % 0.00 in
12:18 54.0 °F 41.7 °F 29.80 in SW 7.5 mph 17.3 mph 63 % 0.00 in
12:24 54.2 °F 41.9 °F 29.80 in West 6.8 mph 12.7 mph 63 % 0.00 in
12:25 54.3 °F 42.0 °F 29.80 in SSW 4.2 mph 12.7 mph 63 % 0.00 in
12:30 54.4 °F 42.1 °F 29.80 in WNW 6.3 mph 16.1 mph 63 % 0.00 in
12:31 54.4 °F 42.1 °F 29.80 in WSW 6.0 mph 16.0 mph 63 % 0.00 in
12:36 54.3 °F 42.0 °F 29.80 in WSW 8.0 mph 16.0 mph 63 % 0.00 in
12:37 54.2 °F 41.9 °F 29.80 in SW 11.9 mph 18.4 mph 63 % 0.00 in
12:40 54.1 °F 41.8 °F 29.80 in SW 10.1 mph 12.7 mph 63 % 0.00 in
12:45 54.1 °F 41.8 °F 29.80 in WSW 9.3 mph 15.0 mph 63 % 0.00 in
12:49 54.1 °F 41.8 °F 29.79 in SW 6.9 mph 11.5 mph 63 % 0.00 in
12:54 54.0 °F 42.1 °F 29.79 in WSW 4.9 mph 10.4 mph 64 % 0.00 in
12:56 54.0 °F 42.1 °F 29.79 in SW 5.7 mph 11.0 mph 64 % 0.00 in
12:59 54.0 °F 42.1 °F 29.79 in West 4.7 mph 10.4 mph 64 % 0.00 in
13:04 54.1 °F 41.8 °F 29.78 in West 5.7 mph 10.4 mph 63 % 0.00 in
13:09 54.1 °F 41.8 °F 29.78 in WSW 9.6 mph 18.4 mph 63 % 0.00 in
13:11 54.1 °F 41.4 °F 29.78 in WSW 4.7 mph 11.5 mph 62 % 0.00 in
13:16 54.1 °F 41.4 °F 29.78 in WSW 7.4 mph 15.0 mph 62 % 0.00 in
13:17 54.1 °F 41.4 °F 29.78 in West 5.7 mph 11.5 mph 62 % 0.00 in
13:22 54.2 °F 41.9 °F 29.78 in West 4.0 mph 5.0 mph 63 % 0.00 in
13:25 54.2 °F 41.9 °F 29.78 in WNW 7.1 mph 12.7 mph 63 % 0.00 in
13:30 54.2 °F 41.5 °F 29.77 in WSW 4.4 mph 8.1 mph 62 % 0.00 in
13:33 54.1 °F 41.4 °F 29.77 in SW 7.7 mph 17.3 mph 62 % 0.00 in
13:38 54.1 °F 41.8 °F 29.77 in WSW 5.3 mph 10.0 mph 63 % 0.00 in
13:43 54.0 °F 41.7 °F 29.77 in SW 4.8 mph 12.0 mph 63 % 0.00 in
13:44 54.0 °F 41.7 °F 29.77 in West 5.7 mph 11.5 mph 63 % 0.00 in
13:49 54.0 °F 41.7 °F 29.77 in SW 6.6 mph 11.5 mph 63 % 0.00 in
13:51 54.0 °F 41.3 °F 29.77 in SW 2.6 mph 11.5 mph 62 % 0.00 in
13:57 54.0 °F 41.3 °F 29.77 in WSW 7.9 mph 11.5 mph 62 % 0.00 in
13:58 54.0 °F 41.3 °F 29.77 in WSW 3.3 mph 6.9 mph 62 % 0.00 in
13:59 53.9 °F 41.2 °F 29.77 in WSW 7.1 mph 11.0 mph 62 % 0.00 in
14:05 53.9 °F 41.2 °F 29.77 in WSW 3.7 mph 8.1 mph 62 % 0.00 in
14:07 53.8 °F 40.7 °F 29.76 in WNW 3.8 mph 4.6 mph 61 % 0.00 in
14:10 53.8 °F 40.7 °F 29.76 in SW 4.7 mph 8.1 mph 61 % 0.00 in
14:12 53.8 °F 40.7 °F 29.76 in WSW 4.0 mph 9.2 mph 61 % 0.00 in
14:17 53.7 °F 40.6 °F 29.76 in West 3.2 mph 6.9 mph 61 % 0.00 in
14:19 53.7 °F 40.6 °F 29.76 in West 4.3 mph 9.2 mph 61 % 0.00 in
14:23 53.7 °F 40.6 °F 29.76 in SSW 2.6 mph 5.8 mph 61 % 0.00 in
14:25 53.6 °F 40.5 °F 29.76 in SSW 3.5 mph 8.0 mph 61 % 0.00 in
14:29 53.6 °F 40.5 °F 29.76 in West 8.2 mph 15.0 mph 61 % 0.00 in
14:30 53.6 °F 40.5 °F 29.76 in SW 4.0 mph 12.7 mph 61 % 0.00 in
14:35 53.5 °F 40.4 °F 29.76 in West 4.7 mph 11.5 mph 61 % 0.00 in
14:39 53.5 °F 40.4 °F 29.76 in WSW 3.6 mph 8.1 mph 61 % 0.00 in
14:44 53.6 °F 40.5 °F 29.76 in SSW 6.5 mph 9.2 mph 61 % 0.00 in
14:45 53.5 °F 39.9 °F 29.75 in West 5.8 mph 9.2 mph 60 % 0.00 in
14:46 53.5 °F 40.0 °F 29.75 in SW 6.0 mph 10.0 mph 60 % 0.00 in
14:51 53.6 °F 40.0 °F 29.76 in WSW 6.5 mph 13.8 mph 60 % 0.00 in
14:54 53.6 °F 40.0 °F 29.75 in West 3.9 mph 8.1 mph 60 % 0.00 in
14:55 53.6 °F 40.5 °F 29.75 in WSW 4.3 mph 8.1 mph 61 % 0.00 in
15:00 53.6 °F 40.0 °F 29.75 in WSW 3.3 mph 8.1 mph 60 % 0.00 in
15:05 53.7 °F 40.1 °F 29.76 in South 3.7 mph 9.2 mph 60 % 0.00 in
15:10 53.7 °F 40.1 °F 29.75 in WSW 7.2 mph 13.8 mph 60 % 0.00 in
15:15 53.7 °F 40.1 °F 29.75 in WSW 3.8 mph 10.4 mph 60 % 0.00 in
15:20 53.7 °F 40.1 °F 29.75 in SSW 8.7 mph 11.5 mph 60 % 0.00 in
15:26 53.7 °F 40.1 °F 29.75 in South 5.6 mph 8.1 mph 60 % 0.00 in
15:31 53.6 °F 40.0 °F 29.75 in SW 7.8 mph 11.5 mph 60 % 0.00 in
15:36 53.6 °F 40.0 °F 29.75 in SW 3.7 mph 8.1 mph 60 % 0.00 in
15:38 53.6 °F 40.0 °F 29.75 in SW 5.4 mph 5.8 mph 60 % 0.00 in
15:39 53.5 °F 39.9 °F 29.75 in WSW 3.4 mph 11.5 mph 60 % 0.00 in
15:45 53.5 °F 39.9 °F 29.75 in SW 3.1 mph 10.4 mph 60 % 0.00 in
15:48 53.4 °F 39.9 °F 29.74 in SSW 5.8 mph 9.2 mph 60 % 0.00 in
15:50 53.4 °F 39.9 °F 29.75 in SW 5.2 mph 9.2 mph 60 % 0.00 in
15:54 53.3 °F 39.8 °F 29.74 in SW 2.9 mph 5.0 mph 60 % 0.00 in
15:59 53.2 °F 39.7 °F 29.74 in South 2.9 mph 5.0 mph 60 % 0.00 in
16:05 53.2 °F 39.7 °F 29.74 in WSW 2.8 mph 5.8 mph 60 % 0.00 in
16:07 53.1 °F 40.0 °F 29.74 in SSW 4.0 mph 6.9 mph 61 % 0.00 in
16:11 53.1 °F 40.0 °F 29.74 in SW 3.0 mph 12.0 mph 61 % 0.00 in
16:16 52.9 °F 39.8 °F 29.74 in SW 2.0 mph 10.0 mph 61 % 0.00 in
16:21 52.8 °F 39.3 °F 29.74 in SW 4.0 mph 6.9 mph 60 % 0.00 in
16:23 52.8 °F 39.7 °F 29.73 in WSW 5.0 mph 11.0 mph 61 % 0.00 in
16:25 52.7 °F 39.6 °F 29.73 in SW 2.9 mph 8.1 mph 61 % 0.00 in
16:30 52.6 °F 39.5 °F 29.73 in WSW 4.1 mph 8.1 mph 61 % 0.00 in
16:31 52.5 °F 39.4 °F 29.74 in SSW 3.0 mph 4.6 mph 61 % 0.00 in
16:36 52.4 °F 38.9 °F 29.73 in WSW 3.3 mph 9.2 mph 60 % 0.00 in
16:38 52.4 °F 38.9 °F 29.73 in SW 6.0 mph 7.0 mph 60 % 0.00 in
16:39 52.3 °F 38.8 °F 29.73 in WSW 6.7 mph 11.5 mph 60 % 0.00 in
16:44 52.2 °F 39.1 °F 29.73 in WSW 3.8 mph 7.0 mph 61 % 0.00 in
16:46 52.2 °F 39.1 °F 29.73 in WSW 5.8 mph 12.7 mph 61 % 0.00 in
16:51 52.1 °F 39.1 °F 29.73 in WSW 5.1 mph 8.1 mph 61 % 0.00 in
16:53 52.1 °F 39.1 °F 29.73 in SW 2.7 mph 6.9 mph 61 % 0.00 in
16:58 52.0 °F 39.0 °F 29.73 in SW 4.7 mph 8.1 mph 61 % 0.00 in
16:59 52.0 °F 39.0 °F 29.73 in SW 5.0 mph 8.1 mph 61 % 0.00 in
17:04 52.0 °F 39.0 °F 29.73 in West 5.2 mph 8.1 mph 61 % 0.00 in
17:05 52.0 °F 39.0 °F 29.73 in SSW 3.6 mph 8.1 mph 61 % 0.00 in
17:10 51.9 °F 39.3 °F 29.73 in WSW 4.4 mph 6.9 mph 62 % 0.00 in
17:11 51.9 °F 38.9 °F 29.73 in SW 4.8 mph 6.0 mph 61 % 0.00 in
17:16 51.9 °F 39.3 °F 29.74 in SSW 3.3 mph 4.6 mph 62 % 0.00 in
17:18 51.9 °F 39.3 °F 29.73 in SW 2.7 mph 5.8 mph 62 % 0.00 in
17:23 51.8 °F 39.2 °F 29.73 in SSW 3.1 mph 6.9 mph 62 % 0.00 in
17:27 51.7 °F 39.1 °F 29.73 in SSW 3.3 mph 6.0 mph 62 % 0.00 in
17:32 51.7 °F 39.1 °F 29.74 in SW 2.5 mph 5.8 mph 62 % 0.00 in
17:33 51.6 °F 39.0 °F 29.74 in SW 4.0 mph 4.0 mph 62 % 0.00 in
17:38 51.5 °F 38.9 °F 29.74 in SW 1.7 mph 4.6 mph 62 % 0.00 in
17:43 51.4 °F 39.2 °F 29.74 in SSW 2.2 mph 10.4 mph 63 % 0.00 in
17:44 51.4 °F 39.2 °F 29.74 in SSW 2.8 mph 10.4 mph 63 % 0.00 in
17:45 51.4 °F 39.2 °F 29.74 in South 4.4 mph 6.9 mph 63 % 0.00 in
17:50 51.3 °F 39.1 °F 29.74 in SSW 4.0 mph 6.9 mph 63 % 0.00 in
17:51 51.2 °F 39.0 °F 29.74 in SSW 1.9 mph 3.5 mph 63 % 0.00 in
17:56 51.2 °F 39.0 °F 29.74 in SSW 3.8 mph 9.2 mph 63 % 0.00 in
18:00 51.1 °F 39.3 °F 29.74 in SSW 4.2 mph 8.1 mph 64 % 0.00 in
18:05 51.1 °F 39.3 °F 29.74 in SW 3.0 mph 8.1 mph 64 % 0.00 in
18:09 51.0 °F 39.2 °F 29.74 in SW 5.1 mph 9.2 mph 64 % 0.00 in
18:18 51.0 °F 39.2 °F 29.74 in SW 3.5 mph 10.4 mph 64 % 0.00 in
18:23 51.1 °F 39.3 °F 29.74 in SSW 4.4 mph 8.1 mph 64 % 0.00 in
18:24 51.1 °F 39.3 °F 29.74 in SW 5.6 mph 9.2 mph 64 % 0.00 in
18:28 51.2 °F 39.4 °F 29.75 in SW 5.7 mph 8.0 mph 64 % 0.00 in
18:33 51.2 °F 39.4 °F 29.75 in WSW 5.8 mph 8.1 mph 64 % 0.00 in
18:34 51.2 °F 39.4 °F 29.75 in SW 5.8 mph 8.1 mph 64 % 0.00 in
18:38 51.3 °F 39.5 °F 29.74 in SW 7.6 mph 8.1 mph 64 % 0.00 in
18:40 51.3 °F 39.5 °F 29.74 in SSW 4.0 mph 16.1 mph 64 % 0.00 in
18:45 51.4 °F 39.6 °F 29.74 in WSW 7.5 mph 12.7 mph 64 % 0.00 in
18:46 51.4 °F 39.6 °F 29.74 in South 8.6 mph 14.0 mph 64 % 0.00 in
18:51 51.5 °F 39.7 °F 29.74 in SW 7.3 mph 11.5 mph 64 % 0.00 in
18:54 51.5 °F 40.1 °F 29.74 in SW 8.4 mph 11.5 mph 65 % 0.00 in
18:58 51.6 °F 40.2 °F 29.74 in SW 4.0 mph 11.5 mph 65 % 0.00 in
19:03 51.6 °F 40.2 °F 29.74 in WSW 7.2 mph 11.5 mph 65 % 0.00 in
19:05 51.6 °F 40.2 °F 29.73 in WSW 6.7 mph 9.0 mph 65 % 0.00 in
19:06 51.6 °F 40.2 °F 29.73 in WSW 7.5 mph 14.0 mph 65 % 0.00 in
19:11 51.6 °F 40.2 °F 29.73 in SW 7.5 mph 13.8 mph 65 % 0.00 in
19:12 51.6 °F 40.2 °F 29.73 in SW 7.1 mph 11.5 mph 65 % 0.00 in
19:13 51.6 °F 40.2 °F 29.73 in SW 11.7 mph 14.0 mph 65 % 0.00 in
19:19 51.7 °F 40.3 °F 29.73 in SSW 4.3 mph 12.7 mph 65 % 0.00 in
19:20 51.7 °F 40.3 °F 29.73 in SW 8.3 mph 11.5 mph 65 % 0.00 in
19:25 51.7 °F 40.3 °F 29.73 in SSW 9.1 mph 16.1 mph 65 % 0.00 in
19:30 51.7 °F 40.3 °F 29.73 in SW 8.3 mph 12.0 mph 65 % 0.00 in
19:35 51.7 °F 40.3 °F 29.73 in SW 9.4 mph 14.0 mph 65 % 0.00 in
19:36 51.7 °F 40.3 °F 29.73 in SSW 8.4 mph 13.8 mph 65 % 0.00 in
19:41 51.7 °F 40.3 °F 29.73 in SW 6.2 mph 13.8 mph 65 % 0.00 in
19:43 51.7 °F 40.3 °F 29.73 in SSW 3.6 mph 15.0 mph 65 % 0.00 in
19:48 51.7 °F 40.3 °F 29.73 in SSW 9.0 mph 15.0 mph 65 % 0.00 in
19:53 51.6 °F 40.2 °F 29.73 in SW 7.8 mph 19.0 mph 65 % 0.00 in
19:55 51.6 °F 40.2 °F 29.72 in SSW 8.0 mph 12.7 mph 65 % 0.00 in
20:00 51.5 °F 40.1 °F 29.73 in WSW 6.9 mph 9.2 mph 65 % 0.00 in
20:01 51.5 °F 40.1 °F 29.72 in SW 9.2 mph 15.0 mph 65 % 0.00 in
20:06 51.5 °F 40.1 °F 29.72 in SW 5.6 mph 11.5 mph 65 % 0.00 in
20:07 51.5 °F 40.1 °F 29.72 in SSW 5.2 mph 11.5 mph 65 % 0.00 in
20:12 51.5 °F 40.1 °F 29.72 in WSW 5.2 mph 12.0 mph 65 % 0.00 in
20:13 51.5 °F 40.1 °F 29.72 in South 6.7 mph 13.0 mph 65 % 0.00 in
20:18 51.4 °F 40.0 °F 29.72 in South 7.8 mph 17.0 mph 65 % 0.00 in
20:19 51.4 °F 40.0 °F 29.72 in SSW 9.0 mph 17.3 mph 65 % 0.00 in
20:24 51.4 °F 40.0 °F 29.73 in SSW 6.3 mph 10.4 mph 65 % 0.00 in
20:25 51.4 °F 40.0 °F 29.73 in SW 6.5 mph 10.4 mph 65 % 0.00 in
20:30 51.3 °F 39.9 °F 29.72 in South 5.5 mph 10.4 mph 65 % 0.00 in
20:35 51.2 °F 39.8 °F 29.72 in West 8.6 mph 16.1 mph 65 % 0.00 in
20:40 51.2 °F 39.8 °F 29.72 in South 8.0 mph 11.5 mph 65 % 0.00 in
20:42 51.2 °F 39.8 °F 29.72 in SW 9.0 mph 14.0 mph 65 % 0.00 in
20:47 51.1 °F 39.7 °F 29.71 in SSW 6.5 mph 10.4 mph 65 % 0.00 in
20:48 51.1 °F 39.7 °F 29.71 in SW 8.3 mph 18.4 mph 65 % 0.00 in
20:49 51.1 °F 39.7 °F 29.71 in SW 8.8 mph 17.3 mph 65 % 0.00 in
20:54 51.0 °F 39.6 °F 29.72 in SSW 5.3 mph 10.4 mph 65 % 0.00 in
20:56 51.0 °F 39.6 °F 29.71 in SSW 5.0 mph 9.2 mph 65 % 0.00 in
21:01 51.0 °F 39.6 °F 29.71 in SW 9.4 mph 15.0 mph 65 % 0.00 in
21:03 50.9 °F 39.5 °F 29.71 in SW 6.8 mph 10.4 mph 65 % 0.00 in
21:08 50.9 °F 39.5 °F 29.71 in SW 5.6 mph 17.0 mph 65 % 0.00 in
21:09 50.9 °F 39.5 °F 29.70 in SSW 8.1 mph 17.3 mph 65 % 0.00 in
21:14 50.8 °F 39.5 °F 29.71 in South 8.2 mph 17.3 mph 65 % 0.00 in
21:19 50.8 °F 39.5 °F 29.71 in South 7.3 mph 11.5 mph 65 % 0.00 in
21:22 50.7 °F 39.4 °F 29.71 in SW 8.0 mph 11.0 mph 65 % 0.00 in
21:26 50.7 °F 39.4 °F 29.71 in SW 8.4 mph 10.4 mph 65 % 0.00 in
21:31 50.7 °F 39.4 °F 29.71 in SSW 6.0 mph 14.0 mph 65 % 0.00 in
21:35 50.6 °F 39.7 °F 29.71 in SSW 5.7 mph 18.4 mph 66 % 0.00 in
21:40 50.5 °F 39.6 °F 29.71 in SW 6.7 mph 9.2 mph 66 % 0.00 in
21:45 50.5 °F 39.6 °F 29.71 in SW 7.7 mph 13.8 mph 66 % 0.00 in
21:46 50.5 °F 39.6 °F 29.71 in SW 5.6 mph 13.8 mph 66 % 0.00 in
21:49 50.5 °F 39.6 °F 29.71 in South 5.1 mph 9.2 mph 66 % 0.00 in
21:51 50.4 °F 39.5 °F 29.71 in SSW 8.1 mph 17.0 mph 66 % 0.00 in
21:56 50.5 °F 39.6 °F 29.70 in SW 6.8 mph 7.0 mph 66 % 0.00 in
22:01 50.4 °F 39.5 °F 29.70 in WSW 7.3 mph 11.5 mph 66 % 0.00 in
22:05 50.4 °F 39.5 °F 29.70 in SSW 7.5 mph 10.4 mph 66 % 0.00 in
22:06 50.4 °F 39.5 °F 29.70 in SSW 7.0 mph 16.0 mph 66 % 0.00 in
22:12 50.3 °F 39.4 °F 29.70 in South 7.4 mph 13.0 mph 66 % 0.00 in
22:17 50.3 °F 39.4 °F 29.70 in SSW 4.4 mph 13.0 mph 66 % 0.00 in
22:18 50.2 °F 39.3 °F 29.70 in SSW 5.5 mph 12.7 mph 66 % 0.00 in
22:23 50.1 °F 39.2 °F 29.70 in SSW 4.9 mph 8.1 mph 66 % 0.00 in
22:24 50.1 °F 39.2 °F 29.70 in SW 5.2 mph 8.1 mph 66 % 0.00 in
22:28 50.1 °F 39.2 °F 29.70 in SSW 5.3 mph 12.7 mph 66 % 0.00 in
22:34 50.0 °F 39.5 °F 29.70 in SSW 5.3 mph 10.4 mph 67 % 0.00 in
22:37 50.0 °F 39.5 °F 29.70 in South 6.0 mph 15.0 mph 67 % 0.00 in
22:42 50.0 °F 39.5 °F 29.70 in WSW 4.6 mph 11.5 mph 67 % 0.00 in
22:47 50.0 °F 39.1 °F 29.70 in SSE 7.9 mph 12.7 mph 66 % 0.00 in
22:48 50.0 °F 39.1 °F 29.70 in SW 7.0 mph 11.5 mph 66 % 0.00 in
22:53 50.0 °F 39.1 °F 29.70 in SW 5.4 mph 11.5 mph 66 % 0.00 in
22:56 50.0 °F 39.1 °F 29.69 in SSW 3.0 mph 12.0 mph 66 % 0.00 in
22:58 50.0 °F 39.1 °F 29.70 in WSW 5.6 mph 13.8 mph 66 % 0.00 in
23:03 50.0 °F 39.1 °F 29.70 in SSW 6.0 mph 11.5 mph 66 % 0.00 in
23:05 50.0 °F 39.1 °F 29.70 in SW 5.0 mph 11.5 mph 66 % 0.00 in
23:07 50.0 °F 39.1 °F 29.70 in SW 3.4 mph 6.9 mph 66 % 0.00 in
23:11 50.0 °F 39.1 °F 29.70 in SSW 6.3 mph 12.7 mph 66 % 0.00 in
23:16 50.0 °F 39.1 °F 29.71 in SW 3.0 mph 14.0 mph 66 % 0.00 in
23:18 50.0 °F 39.1 °F 29.70 in SSW 5.2 mph 11.5 mph 66 % 0.00 in
23:23 50.0 °F 39.1 °F 29.70 in SW 4.9 mph 10.4 mph 66 % 0.00 in
23:28 49.9 °F 39.0 °F 29.70 in SSW 3.3 mph 6.9 mph 66 % 0.00 in
23:29 49.9 °F 39.0 °F 29.70 in SSW 3.0 mph 8.0 mph 66 % 0.00 in
23:34 49.9 °F 39.0 °F 29.69 in SSW 5.3 mph 8.1 mph 66 % 0.00 in
23:37 49.9 °F 39.0 °F 29.69 in SSW 3.5 mph 11.5 mph 66 % 0.00 in
23:39 49.9 °F 39.0 °F 29.69 in WSW 4.0 mph 6.9 mph 66 % 0.00 in
23:43 49.8 °F 38.9 °F 29.69 in SSW 3.4 mph 7.0 mph 66 % 0.00 in
23:48 49.7 °F 38.8 °F 29.69 in West 6.0 mph 8.1 mph 66 % 0.00 in
23:51 49.7 °F 38.8 °F 29.69 in SW 2.1 mph 5.8 mph 66 % 0.00 in
23:55 49.7 °F 38.8 °F 29.69 in West 3.7 mph 6.9 mph 66 % 0.00 in
23:57 49.7 °F 38.8 °F 29.68 in SSW 2.2 mph 5.8 mph 66 % 0.00 in
Crab Meadow Weather
Compliments of Weather Underground - 3.75 mb

Script developed by  Jim McMurry - jmcmurry@mwt.net Adapted for the template by  Wim van der Kuil - Leuven-Template.eu

Clouds: Mostly sunny and mostly clear indicate the same amount of cloud coverage - about 25 percent. Mostly sunny is used during the daytime, and mostly clear is used at night when there is no sun.